createdAt,value
2023-02-25T00:00:36.497Z,98840.06
2023-02-25T00:01:16.926Z,98844.09
2023-02-25T00:02:03.873Z,98841.50
2023-02-25T00:02:41.947Z,98835.72
2023-02-25T00:03:20.124Z,98841.66
2023-02-25T00:03:59.726Z,98839.75
2023-02-25T00:04:39.498Z,98835.09
2023-02-25T00:05:18.261Z,98845.19
2023-02-25T00:05:57.908Z,98844.72
2023-02-25T00:06:36.753Z,98841.34
2023-02-25T00:07:16.293Z,98848.72
2023-02-25T00:07:55.852Z,98844.88
2023-02-25T00:08:35.540Z,98846.81
2023-02-25T00:09:14.655Z,98846.81
2023-02-25T00:09:53.580Z,98850.34
2023-02-25T00:10:32.741Z,98846.47
2023-02-25T00:11:12.410Z,98852.75
2023-02-25T00:11:52.403Z,98845.38
2023-02-25T00:12:32.102Z,98846.81
2023-02-25T00:13:18.143Z,98850.66
2023-02-25T00:13:57.154Z,98846.81
2023-02-25T00:14:34.797Z,98844.41
2023-02-25T00:15:13.702Z,98839.75
2023-02-25T00:15:53.533Z,98834.75
2023-02-25T00:16:32.130Z,98841.81
2023-02-25T00:17:13.420Z,98838.78
2023-02-25T00:17:53.386Z,98841.03
2023-02-25T00:18:33.378Z,98846.47
2023-02-25T00:19:12.473Z,98842.16
2023-02-25T00:19:51.838Z,98841.66
2023-02-25T00:20:30.982Z,98855.00
2023-02-25T00:21:10.995Z,98840.53
2023-02-25T00:21:51.693Z,98842.78
2023-02-25T00:22:31.488Z,98839.75
2023-02-25T00:23:11.254Z,98850.03
2023-02-25T00:23:52.244Z,98845.84
2023-02-25T00:24:30.799Z,98840.22
2023-02-25T00:25:10.388Z,98841.66
2023-02-25T00:25:49.427Z,98841.34
2023-02-25T00:26:29.353Z,98844.72
2023-02-25T00:27:08.459Z,98852.91
2023-02-25T00:27:48.278Z,98851.31
2023-02-25T00:28:27.493Z,98849.06
2023-02-25T00:29:07.164Z,98845.84
2023-02-25T00:29:46.272Z,98846.31
2023-02-25T00:30:25.770Z,98841.66
2023-02-25T00:31:05.420Z,98838.63
2023-02-25T00:31:46.396Z,98851.78
2023-02-25T00:32:27.621Z,98848.72
2023-02-25T00:33:07.656Z,98842.47
2023-02-25T00:33:48.674Z,98843.59
2023-02-25T00:34:29.073Z,98842.47
2023-02-25T00:35:08.235Z,98842.00
2023-02-25T00:35:47.458Z,98850.97
2023-02-25T00:36:28.142Z,98843.59
2023-02-25T00:37:08.148Z,98844.72
2023-02-25T00:37:48.892Z,98843.59
2023-02-25T00:38:29.576Z,98847.44
2023-02-25T00:39:09.859Z,98836.53
2023-02-25T00:39:49.763Z,98838.94
2023-02-25T00:40:29.953Z,98830.59
2023-02-25T00:41:08.862Z,98827.88
2023-02-25T00:41:50.311Z,98826.75
2023-02-25T00:42:29.917Z,98826.41
2023-02-25T00:43:09.728Z,98825.94
2023-02-25T00:43:48.516Z,98829.47
2023-02-25T00:44:28.633Z,98832.19
2023-02-25T00:45:07.105Z,98829.47
2023-02-25T00:45:45.827Z,98832.34
2023-02-25T00:46:26.810Z,98835.88
2023-02-25T00:47:05.910Z,98837.81
2023-02-25T00:47:45.223Z,98837.00
2023-02-25T00:48:25.051Z,98840.88
2023-02-25T00:49:04.052Z,98841.19
2023-02-25T00:49:42.710Z,98844.72
2023-02-25T00:50:21.182Z,98841.19
2023-02-25T00:50:59.801Z,98836.53
2023-02-25T00:51:38.765Z,98838.78
2023-02-25T00:52:17.536Z,98836.06
2023-02-25T00:52:56.023Z,98832.69
2023-02-25T00:53:35.848Z,98837.66
2023-02-25T00:54:14.495Z,98830.59
2023-02-25T00:54:54.309Z,98838.78
2023-02-25T00:55:33.640Z,98842.00
2023-02-25T00:56:12.582Z,98841.50
2023-02-25T00:56:52.481Z,98838.78
2023-02-25T00:57:32.347Z,98840.88
2023-02-25T00:58:12.310Z,98843.91
2023-02-25T00:58:53.129Z,98847.94
2023-02-25T00:59:32.614Z,98842.00
2023-02-25T01:00:12.239Z,98843.59
2023-02-25T01:00:52.301Z,98838.78
2023-02-25T01:01:31.499Z,98845.84
2023-02-25T01:02:11.203Z,98853.56
2023-02-25T01:02:50.645Z,98846.50
2023-02-25T01:03:30.745Z,98853.88
2023-02-25T01:04:10.522Z,98855.97
2023-02-25T01:04:50.303Z,98847.44
2023-02-25T01:05:28.975Z,98850.19
2023-02-25T01:06:08.349Z,98846.97
2023-02-25T01:06:49.195Z,98849.38
2023-02-25T01:07:28.463Z,98854.03
2023-02-25T01:08:09.407Z,98848.56
2023-02-25T01:08:48.840Z,98846.97
2023-02-25T01:09:30.286Z,98848.41
2023-02-25T01:10:11.163Z,98852.44
2023-02-25T01:10:50.688Z,98852.91
2023-02-25T01:11:29.873Z,98849.84
2023-02-25T01:12:09.738Z,98842.78
2023-02-25T01:12:49.344Z,98850.97
2023-02-25T01:13:29.412Z,98852.59
2023-02-25T01:14:10.425Z,98843.59
2023-02-25T01:14:50.781Z,98846.31
2023-02-25T01:15:30.380Z,98845.84
2023-02-25T01:16:08.890Z,98844.56
2023-02-25T01:16:48.914Z,98850.03
2023-02-25T01:17:28.949Z,98844.56
2023-02-25T01:18:08.560Z,98846.97
2023-02-25T01:18:48.430Z,98849.38
2023-02-25T01:19:29.630Z,98847.44
2023-02-25T01:20:10.650Z,98848.56
2023-02-25T01:20:49.833Z,98846.97
2023-02-25T01:21:28.875Z,98848.56
2023-02-25T01:22:08.769Z,98852.91
2023-02-25T01:22:48.937Z,98855.63
2023-02-25T01:23:28.975Z,98846.31
2023-02-25T01:24:10.094Z,98848.56
2023-02-25T01:24:50.878Z,98846.97
2023-02-25T01:25:30.803Z,98847.63
2023-02-25T01:26:10.016Z,98842.97
2023-02-25T01:26:49.145Z,98846.81
2023-02-25T01:27:29.188Z,98853.06
2023-02-25T01:28:10.503Z,98850.19
2023-02-25T01:28:51.402Z,98849.38
2023-02-25T01:29:31.425Z,98839.25
2023-02-25T01:30:10.425Z,98854.84
2023-02-25T01:30:49.679Z,98850.19
2023-02-25T01:31:28.150Z,98852.44
2023-02-25T01:32:07.797Z,98846.97
2023-02-25T01:32:46.855Z,98856.28
2023-02-25T01:33:27.665Z,98849.69
2023-02-25T01:34:07.146Z,98849.22
2023-02-25T01:34:47.907Z,98854.03
2023-02-25T01:35:27.615Z,98859.50
2023-02-25T01:36:06.656Z,98852.44
2023-02-25T01:36:45.388Z,98848.56
2023-02-25T01:37:28.176Z,98856.13
2023-02-25T01:38:07.675Z,98856.75
2023-02-25T01:38:46.849Z,98854.03
2023-02-25T01:39:26.752Z,98851.63
2023-02-25T01:40:04.199Z,98854.69
2023-02-25T01:40:44.210Z,98854.69
2023-02-25T01:41:24.292Z,98859.50
2023-02-25T01:42:03.050Z,98846.97
2023-02-25T01:42:42.372Z,98850.34
2023-02-25T01:43:20.556Z,98846.16
2023-02-25T01:43:59.823Z,98854.84
2023-02-25T01:44:38.831Z,98856.44
2023-02-25T01:45:17.875Z,98857.25
2023-02-25T01:45:56.728Z,98849.38
2023-02-25T01:46:34.937Z,98854.84
2023-02-25T01:47:13.640Z,98855.97
2023-02-25T01:47:52.945Z,98852.75
2023-02-25T01:48:32.397Z,98854.69
2023-02-25T01:49:11.427Z,98855.47
2023-02-25T01:49:50.558Z,98852.75
2023-02-25T01:50:31.411Z,98846.97
2023-02-25T01:51:11.104Z,98854.03
2023-02-25T01:51:49.307Z,98848.91
2023-02-25T01:52:28.516Z,98852.44
2023-02-25T01:53:09.066Z,98851.94
2023-02-25T01:53:48.821Z,98852.75
2023-02-25T01:54:28.763Z,98846.16
2023-02-25T01:55:09.707Z,98852.44
2023-02-25T01:55:50.420Z,98855.63
2023-02-25T01:56:30.268Z,98848.91
2023-02-25T01:57:09.424Z,98849.84
2023-02-25T01:57:47.948Z,98849.38
2023-02-25T01:58:27.618Z,98853.22
2023-02-25T01:59:07.791Z,98851.31
2023-02-25T01:59:48.373Z,98846.16
2023-02-25T02:00:28.581Z,98841.84
2023-02-25T02:01:08.198Z,98850.81
2023-02-25T02:01:48.754Z,98852.44
2023-02-25T02:02:26.518Z,98846.66
2023-02-25T02:03:04.971Z,98846.97
2023-02-25T02:03:45.488Z,98849.69
2023-02-25T02:04:27.132Z,98844.72
2023-02-25T02:05:05.443Z,98844.25
2023-02-25T02:05:45.087Z,98846.16
2023-02-25T02:06:24.838Z,98839.25
2023-02-25T02:07:04.496Z,98846.16
2023-02-25T02:07:43.679Z,98843.44
2023-02-25T02:08:22.445Z,98838.13
2023-02-25T02:09:02.255Z,98840.88
2023-02-25T02:09:42.264Z,98847.28
2023-02-25T02:10:21.327Z,98844.25
2023-02-25T02:11:02.096Z,98849.38
2023-02-25T02:11:41.546Z,98843.91
2023-02-25T02:12:22.302Z,98850.19
2023-02-25T02:13:00.981Z,98851.31
2023-02-25T02:13:39.961Z,98845.53
2023-02-25T02:14:19.115Z,98838.13
2023-02-25T02:14:59.258Z,98847.94
2023-02-25T02:15:47.057Z,98844.72
2023-02-25T02:16:26.884Z,98843.13
2023-02-25T02:17:06.112Z,98849.06
2023-02-25T02:17:45.830Z,98843.59
2023-02-25T02:18:25.286Z,98839.59
2023-02-25T02:19:04.340Z,98839.09
2023-02-25T02:19:43.540Z,98833.00
2023-02-25T02:20:22.752Z,98842.47
2023-02-25T02:21:03.981Z,98845.53
2023-02-25T02:21:42.315Z,98843.13
2023-02-25T02:22:20.462Z,98841.50
2023-02-25T02:22:59.878Z,98848.56
2023-02-25T02:23:40.176Z,98845.19
2023-02-25T02:24:19.382Z,98850.97
2023-02-25T02:24:59.246Z,98844.72
2023-02-25T02:25:38.289Z,98844.72
2023-02-25T02:26:17.149Z,98840.88
2023-02-25T02:26:56.268Z,98846.16
2023-02-25T02:27:35.467Z,98848.91
2023-02-25T02:28:13.727Z,98842.00
2023-02-25T02:28:52.927Z,98843.13
2023-02-25T02:29:33.775Z,98846.97
2023-02-25T02:30:13.120Z,98843.44
2023-02-25T02:30:53.079Z,98846.66
2023-02-25T02:31:32.494Z,98839.25
2023-02-25T02:32:12.624Z,98851.31
2023-02-25T02:32:52.065Z,98843.13
2023-02-25T02:33:30.814Z,98840.38
2023-02-25T02:34:10.094Z,98833.31
2023-02-25T02:34:49.986Z,98846.16
2023-02-25T02:35:29.106Z,98832.84
2023-02-25T02:36:07.434Z,98849.38
2023-02-25T02:36:46.352Z,98842.00
2023-02-25T02:37:25.502Z,98844.72
2023-02-25T02:38:04.591Z,98845.03
2023-02-25T02:38:43.012Z,98845.03
2023-02-25T02:39:22.180Z,98838.47
2023-02-25T02:40:01.729Z,98839.25
2023-02-25T02:40:41.284Z,98839.59
2023-02-25T02:41:20.593Z,98836.84
2023-02-25T02:41:59.180Z,98833.31
2023-02-25T02:42:37.841Z,98842.31
2023-02-25T02:43:17.184Z,98840.72
2023-02-25T02:43:56.899Z,98837.34
2023-02-25T02:44:36.009Z,98844.72
2023-02-25T02:45:15.089Z,98836.53
2023-02-25T02:45:55.188Z,98836.38
2023-02-25T02:46:35.047Z,98842.31
2023-02-25T02:47:13.951Z,98838.78
2023-02-25T02:47:53.234Z,98843.44
2023-02-25T02:48:32.789Z,98841.66
2023-02-25T02:49:11.053Z,98838.47
2023-02-25T02:49:50.304Z,98842.00
2023-02-25T02:50:29.813Z,98838.31
2023-02-25T02:51:09.853Z,98844.56
2023-02-25T02:51:49.643Z,98844.25
2023-02-25T02:52:28.798Z,98842.97
2023-02-25T02:53:08.564Z,98844.09
2023-02-25T02:53:48.494Z,98848.41
2023-02-25T02:54:28.956Z,98835.91
2023-02-25T02:55:08.816Z,98837.50
2023-02-25T02:55:49.556Z,98845.53
2023-02-25T02:56:29.691Z,98844.25
2023-02-25T02:57:09.839Z,98843.44
2023-02-25T02:57:49.022Z,98834.78
2023-02-25T02:58:28.942Z,98835.56
2023-02-25T02:59:08.769Z,98836.22
2023-02-25T02:59:49.247Z,98837.00
2023-02-25T03:00:28.757Z,98837.50
2023-02-25T03:01:08.909Z,98843.75
2023-02-25T03:01:46.548Z,98836.69
2023-02-25T03:02:25.242Z,98844.88
2023-02-25T03:03:05.170Z,98846.00
2023-02-25T03:03:44.745Z,98850.34
2023-02-25T03:04:23.767Z,98851.16
2023-02-25T03:05:03.780Z,98857.41
2023-02-25T03:05:43.838Z,98855.00
2023-02-25T03:06:25.087Z,98851.47
2023-02-25T03:07:03.723Z,98851.94
2023-02-25T03:07:42.929Z,98850.50
2023-02-25T03:08:22.658Z,98856.59
2023-02-25T03:09:02.376Z,98855.81
2023-02-25T03:09:42.048Z,98846.81
2023-02-25T03:10:23.071Z,98853.56
2023-02-25T03:11:03.137Z,98851.94
2023-02-25T03:11:42.990Z,98849.53
2023-02-25T03:12:21.923Z,98845.19
2023-02-25T03:13:01.143Z,98858.53
2023-02-25T03:13:41.076Z,98854.19
2023-02-25T03:14:22.028Z,98853.06
2023-02-25T03:15:03.538Z,98853.88
2023-02-25T03:15:42.302Z,98852.75
2023-02-25T03:16:23.426Z,98852.44
2023-02-25T03:17:02.161Z,98854.34
2023-02-25T03:17:41.581Z,98845.69
2023-02-25T03:18:20.705Z,98846.50
2023-02-25T03:19:01.766Z,98855.47
2023-02-25T03:19:41.909Z,98852.75
2023-02-25T03:20:21.697Z,98845.84
2023-02-25T03:21:01.297Z,98851.94
2023-02-25T03:21:41.344Z,98850.66
2023-02-25T03:22:20.905Z,98850.03
2023-02-25T03:23:00.942Z,98851.16
2023-02-25T03:23:40.098Z,98854.69
2023-02-25T03:24:21.034Z,98860.13
2023-02-25T03:25:00.925Z,98860.13
2023-02-25T03:25:40.644Z,98857.56
2023-02-25T03:26:20.754Z,98861.09
2023-02-25T03:27:00.458Z,98863.03
2023-02-25T03:27:40.255Z,98864.94
2023-02-25T03:28:19.572Z,98855.97
2023-02-25T03:28:58.701Z,98865.75
2023-02-25T03:29:38.278Z,98857.88
2023-02-25T03:30:17.822Z,98863.34
2023-02-25T03:30:57.396Z,98865.59
2023-02-25T03:31:36.985Z,98865.28
2023-02-25T03:32:17.777Z,98857.88
2023-02-25T03:32:57.519Z,98868.81
2023-02-25T03:33:36.742Z,98865.59
2023-02-25T03:34:15.752Z,98868.31
2023-02-25T03:34:56.539Z,98866.88
2023-02-25T03:35:37.328Z,98864.94
2023-02-25T03:36:16.968Z,98870.41
2023-02-25T03:36:56.847Z,98868.81
2023-02-25T03:37:36.916Z,98861.25
2023-02-25T03:38:17.568Z,98862.88
2023-02-25T03:38:56.542Z,98863.19
2023-02-25T03:39:35.991Z,98865.13
2023-02-25T03:40:16.088Z,98871.53
2023-02-25T03:40:56.803Z,98868.81
2023-02-25T03:41:36.608Z,98862.22
2023-02-25T03:42:16.539Z,98863.34
2023-02-25T03:42:56.193Z,98865.59
2023-02-25T03:43:36.139Z,98860.13
2023-02-25T03:44:15.172Z,98870.41
2023-02-25T03:44:54.426Z,98868.16
2023-02-25T03:45:33.882Z,98869.63
2023-02-25T03:46:14.670Z,98864.94
2023-02-25T03:46:53.798Z,98875.56
2023-02-25T03:47:33.631Z,98863.66
2023-02-25T03:48:12.364Z,98861.41
2023-02-25T03:48:53.031Z,98868.81
2023-02-25T03:49:30.943Z,98863.66
2023-02-25T03:50:10.076Z,98871.06
2023-02-25T03:50:49.306Z,98868.00
2023-02-25T03:51:28.828Z,98864.47
2023-02-25T03:52:08.418Z,98875.88
2023-02-25T03:52:48.142Z,98874.28
2023-02-25T03:53:27.045Z,98870.72
2023-02-25T03:54:07.886Z,98873.47
2023-02-25T03:54:46.052Z,98875.06
2023-02-25T03:55:25.199Z,98879.72
2023-02-25T03:56:06.066Z,98871.06
2023-02-25T03:56:45.774Z,98881.97
2023-02-25T03:57:25.419Z,98882.28
2023-02-25T03:58:05.632Z,98868.81
2023-02-25T03:58:46.490Z,98868.31
2023-02-25T03:59:26.236Z,98868.66
2023-02-25T04:00:08.384Z,98867.84
2023-02-25T04:00:48.032Z,98868.66
2023-02-25T04:01:28.063Z,98874.09
2023-02-25T04:02:08.604Z,98867.84
2023-02-25T04:02:48.419Z,98872.97
2023-02-25T04:03:29.062Z,98871.06
2023-02-25T04:04:08.594Z,98872.97
2023-02-25T04:04:47.899Z,98868.66
2023-02-25T04:05:27.161Z,98866.41
2023-02-25T04:06:05.934Z,98876.50
2023-02-25T04:06:45.550Z,98871.06
2023-02-25T04:07:24.399Z,98870.25
2023-02-25T04:08:02.864Z,98881.97
2023-02-25T04:08:41.855Z,98876.19
2023-02-25T04:09:21.868Z,98883.09
2023-02-25T04:10:01.153Z,98872.97
2023-02-25T04:10:41.404Z,98878.75
2023-02-25T04:11:22.390Z,98886.16
2023-02-25T04:12:02.935Z,98876.69
2023-02-25T04:12:42.051Z,98888.56
2023-02-25T04:13:21.166Z,98888.56
2023-02-25T04:14:00.173Z,98884.22
2023-02-25T04:14:39.132Z,98888.25
2023-02-25T04:15:18.327Z,98887.44
2023-02-25T04:15:58.151Z,98887.75
2023-02-25T04:16:39.370Z,98893.22
2023-02-25T04:17:19.797Z,98896.25
2023-02-25T04:17:58.987Z,98898.69
2023-02-25T04:18:38.053Z,98888.88
2023-02-25T04:19:17.512Z,98890.97
2023-02-25T04:19:57.594Z,98889.69
2023-02-25T04:20:38.529Z,98893.22
2023-02-25T04:21:18.505Z,98896.44
2023-02-25T04:21:59.237Z,98899.47
2023-02-25T04:22:39.068Z,98889.69
2023-02-25T04:23:18.047Z,98891.28
2023-02-25T04:23:57.182Z,98894.03
2023-02-25T04:24:37.130Z,98893.22
2023-02-25T04:25:16.996Z,98899.47
2023-02-25T04:25:57.260Z,98895.63
2023-02-25T04:26:37.158Z,98897.88
2023-02-25T04:27:17.104Z,98899.00
2023-02-25T04:27:56.642Z,98899.00
2023-02-25T04:28:36.861Z,98899.47
2023-02-25T04:29:15.958Z,98901.41
2023-02-25T04:29:55.797Z,98900.59
2023-02-25T04:30:35.634Z,98903.00
2023-02-25T04:31:15.879Z,98903.00
2023-02-25T04:31:56.429Z,98899.47
2023-02-25T04:32:36.911Z,98897.88
2023-02-25T04:33:17.122Z,98897.88
2023-02-25T04:33:57.270Z,98896.75
2023-02-25T04:34:36.386Z,98896.09
2023-02-25T04:35:16.045Z,98890.97
2023-02-25T04:35:55.032Z,98892.56
2023-02-25T04:36:34.448Z,98888.25
2023-02-25T04:37:13.935Z,98885.81
2023-02-25T04:37:52.933Z,98884.22
2023-02-25T04:38:32.240Z,98892.41
2023-02-25T04:39:11.274Z,98899.47
2023-02-25T04:39:50.138Z,98897.88
2023-02-25T04:40:30.485Z,98899.00
2023-02-25T04:41:11.572Z,98899.00
2023-02-25T04:41:52.751Z,98903.66
2023-02-25T04:42:33.839Z,98904.44
2023-02-25T04:43:14.454Z,98902.03
2023-02-25T04:43:54.278Z,98906.06
2023-02-25T04:44:33.349Z,98898.19
2023-02-25T04:45:13.097Z,98891.59
2023-02-25T04:45:53.804Z,98882.63
2023-02-25T04:46:33.179Z,98887.75
2023-02-25T04:47:13.464Z,98894.03
2023-02-25T04:47:53.268Z,98894.81
2023-02-25T04:48:33.321Z,98894.66
2023-02-25T04:49:13.972Z,98894.66
2023-02-25T04:49:53.314Z,98895.94
2023-02-25T04:50:32.672Z,98897.88
2023-02-25T04:51:12.434Z,98894.34
2023-02-25T04:51:52.256Z,98898.69
2023-02-25T04:52:32.184Z,98906.06
2023-02-25T04:53:11.426Z,98905.25
2023-02-25T04:53:50.595Z,98907.97
2023-02-25T04:54:31.492Z,98906.88
2023-02-25T04:55:12.124Z,98903.66
2023-02-25T04:55:52.121Z,98912.16
2023-02-25T04:56:32.607Z,98902.84
2023-02-25T04:57:12.115Z,98908.78
2023-02-25T04:57:51.572Z,98903.00
2023-02-25T04:58:30.817Z,98899.00
2023-02-25T04:59:10.126Z,98900.91
2023-02-25T04:59:50.694Z,98896.91
2023-02-25T05:00:30.539Z,98901.72
2023-02-25T05:01:10.543Z,98899.00
2023-02-25T05:01:50.576Z,98896.59
2023-02-25T05:02:31.952Z,98899.00
2023-02-25T05:03:12.709Z,98904.78
2023-02-25T05:03:51.533Z,98905.56
2023-02-25T05:04:30.758Z,98904.44
2023-02-25T05:05:10.582Z,98902.84
2023-02-25T05:05:50.316Z,98897.38
2023-02-25T05:06:29.761Z,98899.31
2023-02-25T05:07:09.390Z,98902.03
2023-02-25T05:07:49.431Z,98901.72
2023-02-25T05:08:28.059Z,98898.19
2023-02-25T05:09:09.326Z,98900.91
2023-02-25T05:09:48.077Z,98900.28
2023-02-25T05:10:28.495Z,98898.34
2023-02-25T05:11:08.499Z,98906.06
2023-02-25T05:11:49.356Z,98894.66
2023-02-25T05:12:29.904Z,98898.19
2023-02-25T05:13:08.640Z,98897.72
2023-02-25T05:13:47.873Z,98899.63
2023-02-25T05:14:27.218Z,98902.38
2023-02-25T05:15:09.451Z,98904.28
2023-02-25T05:15:49.456Z,98899.31
2023-02-25T05:16:29.995Z,98891.94
2023-02-25T05:17:09.929Z,98900.91
2023-02-25T05:17:50.301Z,98894.66
2023-02-25T05:18:29.681Z,98886.94
2023-02-25T05:19:09.180Z,98895.94
2023-02-25T05:19:48.787Z,98892.09
2023-02-25T05:20:29.362Z,98890.47
2023-02-25T05:21:08.606Z,98889.69
2023-02-25T05:21:46.787Z,98891.28
2023-02-25T05:22:25.095Z,98895.13
2023-02-25T05:23:03.346Z,98899.00
2023-02-25T05:23:41.702Z,98893.53
2023-02-25T05:24:19.683Z,98894.34
2023-02-25T05:24:58.978Z,98890.47
2023-02-25T05:25:37.741Z,98889.69
2023-02-25T05:26:16.085Z,98896.75
2023-02-25T05:26:56.472Z,98890.47
2023-02-25T05:27:36.373Z,98893.53
2023-02-25T05:28:15.879Z,98899.00
2023-02-25T05:28:54.498Z,98897.38
2023-02-25T05:29:34.826Z,98894.19
2023-02-25T05:30:15.149Z,98893.06
2023-02-25T05:30:56.343Z,98891.94
2023-02-25T05:31:37.462Z,98894.66
2023-02-25T05:32:18.262Z,98896.59
2023-02-25T05:32:58.568Z,98899.63
2023-02-25T05:33:38.062Z,98896.91
2023-02-25T05:34:17.283Z,98900.13
2023-02-25T05:34:58.005Z,98903.97
2023-02-25T05:35:37.843Z,98902.53
2023-02-25T05:36:17.583Z,98903.66
2023-02-25T05:36:56.568Z,98902.03
2023-02-25T05:37:34.646Z,98902.84
2023-02-25T05:38:14.457Z,98888.88
2023-02-25T05:38:53.338Z,98893.53
2023-02-25T05:39:32.181Z,98894.19
2023-02-25T05:40:11.695Z,98896.59
2023-02-25T05:40:50.804Z,98890.31
2023-02-25T05:41:30.777Z,98892.25
2023-02-25T05:42:10.244Z,98897.72
2023-02-25T05:42:49.727Z,98896.91
2023-02-25T05:43:29.035Z,98898.03
2023-02-25T05:44:08.858Z,98901.25
2023-02-25T05:44:47.812Z,98885.19
2023-02-25T05:45:28.442Z,98899.00
2023-02-25T05:46:07.814Z,98893.53
2023-02-25T05:46:48.112Z,98895.47
2023-02-25T05:47:27.565Z,98900.91
2023-02-25T05:48:07.493Z,98900.13
2023-02-25T05:48:49.719Z,98899.00
2023-02-25T05:49:31.562Z,98894.03
2023-02-25T05:50:10.830Z,98898.19
2023-02-25T05:50:50.117Z,98897.88
2023-02-25T05:51:29.557Z,98902.03
2023-02-25T05:52:08.949Z,98903.66
2023-02-25T05:52:50.193Z,98900.13
2023-02-25T05:53:29.850Z,98905.09
2023-02-25T05:54:08.748Z,98904.44
2023-02-25T05:54:47.881Z,98901.41
2023-02-25T05:55:26.763Z,98905.25
2023-02-25T05:56:09.568Z,98903.31
2023-02-25T05:56:48.941Z,98896.59
2023-02-25T05:57:28.427Z,98906.69
2023-02-25T05:58:07.706Z,98907.81
2023-02-25T05:58:47.327Z,98909.75
2023-02-25T05:59:27.092Z,98906.69
2023-02-25T06:00:05.805Z,98906.69
2023-02-25T06:00:44.833Z,98906.06
2023-02-25T06:01:24.551Z,98909.91
2023-02-25T06:02:05.396Z,98905.56
2023-02-25T06:02:45.190Z,98906.38
2023-02-25T06:03:24.814Z,98906.88
2023-02-25T06:04:08.428Z,98899.00
2023-02-25T06:04:47.595Z,98912.97
2023-02-25T06:05:26.454Z,98911.34
2023-02-25T06:06:06.058Z,98907.97
2023-02-25T06:06:45.362Z,98908.78
2023-02-25T06:07:25.437Z,98909.59
2023-02-25T06:08:05.460Z,98916.50
2023-02-25T06:08:46.211Z,98906.69
2023-02-25T06:09:25.132Z,98914.56
2023-02-25T06:10:05.576Z,98917.78
2023-02-25T06:10:44.564Z,98918.09
2023-02-25T06:11:23.170Z,98918.09
2023-02-25T06:12:03.099Z,98922.44
2023-02-25T06:12:43.781Z,98917.28
2023-02-25T06:13:22.734Z,98915.69
2023-02-25T06:14:02.681Z,98924.69
2023-02-25T06:14:43.270Z,98921.94
2023-02-25T06:15:23.047Z,98918.41
2023-02-25T06:16:02.602Z,98921.63
2023-02-25T06:16:42.214Z,98920.03
2023-02-25T06:17:21.157Z,98918.41
2023-02-25T06:18:00.179Z,98919.53
2023-02-25T06:18:38.475Z,98920.81
2023-02-25T06:19:16.838Z,98920.19
2023-02-25T06:19:56.331Z,98924.03
2023-02-25T06:20:35.577Z,98920.50
2023-02-25T06:21:14.398Z,98920.81
2023-02-25T06:21:53.139Z,98920.03
2023-02-25T06:22:32.831Z,98918.41
2023-02-25T06:23:11.768Z,98918.41
2023-02-25T06:23:50.919Z,98925.00
2023-02-25T06:24:30.644Z,98930.94
2023-02-25T06:25:09.537Z,98929.81
2023-02-25T06:25:48.744Z,98933.34
2023-02-25T06:26:27.542Z,98943.00
2023-02-25T06:27:06.493Z,98935.59
2023-02-25T06:27:46.515Z,98939.13
2023-02-25T06:28:27.076Z,98942.66
2023-02-25T06:29:05.940Z,98938.50
2023-02-25T06:29:44.756Z,98941.88
2023-02-25T06:30:25.298Z,98946.53
2023-02-25T06:31:05.052Z,98938.66
2023-02-25T06:31:45.520Z,98946.34
2023-02-25T06:32:25.604Z,98947.63
2023-02-25T06:33:06.222Z,98938.00
2023-02-25T06:33:46.500Z,98940.25
2023-02-25T06:34:26.796Z,98947.31
2023-02-25T06:35:06.146Z,98941.06
2023-02-25T06:35:46.966Z,98947.63
2023-02-25T06:36:27.060Z,98943.00
2023-02-25T06:37:05.863Z,98950.84
2023-02-25T06:37:45.768Z,98945.06
2023-02-25T06:38:25.004Z,98941.88
2023-02-25T06:39:06.316Z,98941.88
2023-02-25T06:39:45.188Z,98933.66
2023-02-25T06:40:23.809Z,98945.06
2023-02-25T06:41:03.893Z,98937.22
2023-02-25T06:41:43.200Z,98934.47
2023-02-25T06:42:23.108Z,98936.41
2023-02-25T06:43:03.932Z,98941.06
2023-02-25T06:43:43.703Z,98935.59
2023-02-25T06:44:23.261Z,98941.06
2023-02-25T06:45:07.205Z,98941.38
2023-02-25T06:45:45.724Z,98935.59
2023-02-25T06:46:25.836Z,98939.44
2023-02-25T06:47:04.534Z,98939.13
2023-02-25T06:47:44.812Z,98948.94
2023-02-25T06:48:24.652Z,98947.00
2023-02-25T06:49:04.174Z,98945.88
2023-02-25T06:49:44.126Z,98949.25
2023-02-25T06:50:23.830Z,98957.13
2023-02-25T06:51:02.316Z,98958.25
2023-02-25T06:51:43.049Z,98951.97
2023-02-25T06:52:21.824Z,98953.91
2023-02-25T06:53:01.764Z,98963.69
2023-02-25T06:53:40.227Z,98964.19
2023-02-25T06:54:20.077Z,98969.97
2023-02-25T06:54:59.208Z,98967.56
2023-02-25T06:55:39.202Z,98972.22
2023-02-25T06:56:18.066Z,98972.22
2023-02-25T06:56:58.761Z,98969.47
2023-02-25T06:57:37.871Z,98970.59
2023-02-25T06:58:17.414Z,98971.41
2023-02-25T06:58:56.429Z,98971.41
2023-02-25T06:59:37.505Z,98968.34
2023-02-25T07:00:16.992Z,98971.88
2023-02-25T07:00:56.002Z,98972.69
2023-02-25T07:01:34.913Z,98974.31
2023-02-25T07:02:15.175Z,98971.56
2023-02-25T07:02:53.920Z,98969.97
2023-02-25T07:03:33.436Z,98972.38
2023-02-25T07:04:12.636Z,98968.53
2023-02-25T07:04:52.122Z,98973.50
2023-02-25T07:05:31.333Z,98975.91
2023-02-25T07:06:10.976Z,98977.03
2023-02-25T07:06:49.940Z,98961.78
2023-02-25T07:07:30.295Z,98969.66
2023-02-25T07:08:09.971Z,98975.41
2023-02-25T07:08:49.446Z,98974.63
2023-02-25T07:09:28.830Z,98980.06
2023-02-25T07:10:09.016Z,98973.00
2023-02-25T07:10:48.144Z,98976.84
2023-02-25T07:11:27.561Z,98984.72
2023-02-25T07:12:06.543Z,98979.59
2023-02-25T07:12:47.490Z,98975.75
2023-02-25T07:13:27.234Z,98973.81
2023-02-25T07:14:07.183Z,98972.69
2023-02-25T07:14:46.964Z,98978.47
2023-02-25T07:15:26.279Z,98980.06
2023-02-25T07:16:05.234Z,98985.53
2023-02-25T07:16:45.134Z,98977.34
2023-02-25T07:17:24.936Z,98987.16
2023-02-25T07:18:04.414Z,98985.53
2023-02-25T07:18:43.524Z,98985.22
2023-02-25T07:19:25.012Z,98989.38
2023-02-25T07:20:04.431Z,98997.25
2023-02-25T07:20:42.884Z,98990.19
2023-02-25T07:21:22.072Z,99004.31
2023-02-25T07:22:01.899Z,98990.69
2023-02-25T07:22:43.018Z,98994.53
2023-02-25T07:23:24.300Z,98992.91
2023-02-25T07:24:04.833Z,99001.91
2023-02-25T07:24:44.749Z,99005.75
2023-02-25T07:25:24.628Z,99004.63
2023-02-25T07:26:03.818Z,99002.72
2023-02-25T07:26:44.063Z,99008.00
2023-02-25T07:27:24.208Z,99005.28
2023-02-25T07:28:06.493Z,99008.81
2023-02-25T07:28:45.543Z,99016.69
2023-02-25T07:29:26.488Z,99015.06
2023-02-25T07:30:06.276Z,99010.41
2023-02-25T07:30:44.589Z,99014.44
2023-02-25T07:31:23.901Z,99006.09
2023-02-25T07:32:03.368Z,99009.63
2023-02-25T07:32:43.988Z,99008.81
2023-02-25T07:33:23.030Z,99007.69
2023-02-25T07:34:04.196Z,99008.50
2023-02-25T07:34:44.216Z,99004.97
2023-02-25T07:35:24.919Z,99004.16
2023-02-25T07:36:03.513Z,99010.41
2023-02-25T07:36:42.437Z,99005.44
2023-02-25T07:37:21.176Z,99012.03
2023-02-25T07:38:02.232Z,99010.41
2023-02-25T07:38:41.613Z,99008.81
2023-02-25T07:39:21.496Z,99010.09
2023-02-25T07:40:00.832Z,99005.94
2023-02-25T07:40:42.080Z,99013.63
2023-02-25T07:41:21.039Z,99013.94
2023-02-25T07:42:00.161Z,99010.41
2023-02-25T07:42:39.243Z,99011.22
2023-02-25T07:43:19.101Z,99021.34
2023-02-25T07:43:57.988Z,99021.34
2023-02-25T07:44:37.266Z,99016.19
2023-02-25T07:45:17.162Z,99017.31
2023-02-25T07:45:55.223Z,99027.44
2023-02-25T07:46:33.878Z,99022.13